Time;durP1;ratioP1;P1;durP2;ratioP2;P2;SDS_P1;SDS_P2;PMS_P1;PMS_P2;Temp;Humidity;BMP_temperature;BMP_pressure;BME280_temperature;BME280_humidity;BME280_pressure;Samples;Min_cycle;Max_cycle;Signal;HPM_P1;HPM_P2
2022/03/20 00:00:26;;;;;;;14.32;7.55;;;;;;;-2.73;45.81;97303.16;5028812;28;20503;-68
2022/03/20 00:02:54;;;;;;;12.63;7.93;;;;;;;-2.75;46.01;97308.16;5012253;28;20030;-67
2022/03/20 00:05:20;;;;;;;12.05;8.38;;;;;;;-3.10;46.34;97251.69;5008637;28;20455;-67
2022/03/20 00:07:46;;;;;;;12.02;8.10;;;;;;;-2.81;45.88;97291.16;5008926;28;20029;-66
2022/03/20 00:10:14;;;;;;;15.15;7.60;;;;;;;-3.34;45.69;97189.69;5009016;28;20084;-69
2022/03/20 00:12:40;;;;;;;13.52;9.48;;;;;;;-2.87;46.08;97263.25;5009078;28;20567;-67
2022/03/20 00:15:06;;;;;;;12.82;9.43;;;;;;;-2.87;46.13;97249.75;5009014;28;20216;-67
2022/03/20 00:17:32;;;;;;;13.02;8.10;;;;;;;-2.77;46.00;97264.34;5008434;28;20283;-66
2022/03/20 00:19:57;;;;;;;14.68;9.38;;;;;;;-2.73;45.54;97275.38;5008851;28;20061;-67
2022/03/20 00:22:24;;;;;;;14.10;8.85;;;;;;;-2.90;46.43;97264.81;5007959;28;20050;-66
2022/03/20 00:24:49;;;;;;;15.82;8.98;;;;;;;-2.90;46.61;97279.97;5008783;28;20033;-65
2022/03/20 00:27:16;;;;;;;15.90;9.43;;;;;;;-2.98;46.18;97264.66;5009040;28;20593;-67
2022/03/20 00:29:42;;;;;;;14.23;8.52;;;;;;;-3.04;46.31;97246.81;5008067;28;20026;-68
2022/03/20 00:32:09;;;;;;;15.57;9.20;;;;;;;-2.88;46.19;97286.78;5008422;28;20084;-68
2022/03/20 00:34:35;;;;;;;15.23;9.07;;;;;;;-2.75;45.97;97307.28;5008443;28;20026;-68
2022/03/20 00:37:01;;;;;;;14.68;9.55;;;;;;;-2.86;46.55;97295.25;5008107;28;20026;-67
2022/03/20 00:39:27;;;;;;;17.30;10.90;;;;;;;-2.92;46.48;97281.63;5009015;28;20022;-72
2022/03/20 00:41:52;;;;;;;17.10;10.70;;;;;;;-2.92;46.31;97269.00;5027616;28;20468;-68
2022/03/20 00:44:18;;;;;;;17.20;9.90;;;;;;;-3.08;46.72;97258.50;5028665;28;20029;-67
2022/03/20 00:46:44;;;;;;;15.63;10.02;;;;;;;-3.33;46.92;97220.00;5028427;28;20043;-66
2022/03/20 00:49:09;;;;;;;16.30;9.20;;;;;;;-3.29;46.94;97237.75;5028464;28;20030;-66
2022/03/20 00:51:36;;;;;;;14.93;8.63;;;;;;;-3.06;46.96;97268.66;5028464;28;20820;-66
2022/03/20 00:54:01;;;;;;;16.38;9.65;;;;;;;-3.02;47.23;97283.88;5027902;28;20071;-67
2022/03/20 00:56:27;;;;;;;13.82;8.70;;;;;;;-3.19;47.14;97263.25;5027929;28;20413;-66
2022/03/20 00:58:52;;;;;;;17.08;10.80;;;;;;;-3.00;47.59;97297.44;5017356;28;20029;-68
2022/03/20 01:01:18;;;;;;;20.25;10.23;;;;;;;-3.23;47.83;97265.66;5008309;28;20033;-67
2022/03/20 01:03:44;;;;;;;17.58;12.32;;;;;;;-3.02;48.01;97298.19;5008179;28;20429;-68
2022/03/20 01:06:11;;;;;;;14.98;10.73;;;;;;;-2.93;48.21;97303.50;5007592;28;20044;-69
2022/03/20 01:08:37;;;;;;;17.13;10.95;;;;;;;-3.04;47.64;97269.53;5022003;28;20710;-65
2022/03/20 01:11:07;;;;;;;15.15;10.27;;;;;;;-2.82;47.02;97293.66;5028120;28;20036;-69
2022/03/20 01:13:33;;;;;;;18.63;11.98;;;;;;;-2.88;48.03;97285.94;5027877;28;20120;-67
2022/03/20 01:15:59;;;;;;;26.50;14.70;;;;;;;-3.32;47.83;97225.91;5025851;28;20467;-67
2022/03/20 01:18:25;;;;;;;25.65;16.35;;;;;;;-3.37;49.01;97235.84;5027198;28;20022;-65
2022/03/20 01:20:51;;;;;;;24.23;14.18;;;;;;;-3.06;48.71;97292.22;5026501;28;20195;-66
2022/03/20 01:23:17;;;;;;;23.27;13.05;;;;;;;-3.88;49.58;97181.50;5027700;28;20114;-68
2022/03/20 01:25:43;;;;;;;25.33;14.75;;;;;;;-3.29;49.94;97293.25;5027844;28;20508;-68
2022/03/20 01:28:09;;;;;;;23.35;14.68;;;;;;;-3.56;50.03;97257.22;5028135;28;20029;-66
2022/03/20 01:30:34;;;;;;;23.98;14.05;;;;;;;-3.52;50.28;97265.72;5027541;28;20126;-67
2022/03/20 01:33:01;;;;;;;24.80;14.38;;;;;;;-3.74;50.23;97228.94;5027963;28;20109;-67
2022/03/20 01:35:27;;;;;;;23.33;14.15;;;;;;;-3.45;50.03;97297.03;5026159;28;20030;-67
2022/03/20 01:37:52;;;;;;;20.77;14.43;;;;;;;-3.43;50.25;97287.81;5027590;28;20048;-70
2022/03/20 01:40:18;;;;;;;19.27;12.20;;;;;;;-3.51;49.92;97264.88;5027675;28;20504;-67
2022/03/20 01:42:43;;;;;;;20.00;13.90;;;;;;;-3.91;50.28;97210.81;5027107;28;20107;-68
2022/03/20 01:45:18;;;;;;;19.48;12.23;;;;;;;-3.28;49.68;97280.69;5027681;28;20033;-66
2022/03/20 01:47:47;;;;;;;19.38;12.50;;;;;;;-4.17;50.00;97147.06;5027755;28;20084;-66
2022/03/20 01:50:26;;;;;;;21.88;12.20;;;;;;;-3.47;50.42;97294.44;5027507;28;20048;-67
2022/03/20 01:52:53;;;;;;;18.85;12.43;;;;;;;-3.49;50.32;97288.50;5027261;28;20041;-68
2022/03/20 01:55:21;;;;;;;18.42;10.85;;;;;;;-3.54;50.30;97283.34;5027037;28;20033;-67
2022/03/20 01:57:49;;;;;;;20.48;10.63;;;;;;;-3.42;50.06;97292.06;5027877;28;20025;-68
2022/03/20 02:00:19;;;;;;;10.30;7.38;;;;;;;-3.35;49.49;97281.31;5027799;28;20052;-66
2022/03/20 02:02:45;;;;;;;13.73;9.27;;;;;;;-3.43;49.13;97300.44;5027477;28;20164;-67
2022/03/20 02:05:11;;;;;;;12.88;8.85;;;;;;;-3.58;49.97;97299.19;5027320;28;20036;-66
2022/03/20 02:07:38;;;;;;;12.93;8.70;;;;;;;-3.72;50.40;97288.72;5027740;28;20031;-67
2022/03/20 02:10:14;;;;;;;15.10;8.55;;;;;;;-3.70;50.80;97297.16;5031295;28;20123;-68
2022/03/20 02:12:40;;;;;;;7.25;4.95;;;;;;;-3.81;51.95;97307.75;5031082;28;20425;-68
2022/03/20 02:15:12;;;;;;;13.32;8.13;;;;;;;-4.02;52.08;97282.75;5030990;28;20072;-66
2022/03/20 02:17:40;;;;;;;11.27;7.93;;;;;;;-4.03;51.84;97299.53;5031185;28;20071;-65
2022/03/20 02:20:08;;;;;;;14.20;8.73;;;;;;;-4.16;52.30;97283.19;5031014;28;20107;-69
2022/03/20 02:22:39;;;;;;;14.73;9.50;;;;;;;-4.03;52.12;97306.22;5030832;28;20092;-67
2022/03/20 02:25:05;;;;;;;13.03;7.10;;;;;;;-4.12;52.42;97304.28;5030828;28;20021;-66
2022/03/20 02:27:32;;;;;;;16.38;8.27;;;;;;;-4.15;52.55;97302.53;5030599;28;20268;-69
2022/03/20 02:30:02;;;;;;;16.05;9.90;;;;;;;-4.63;53.34;97229.66;5030384;28;20056;-67
2022/03/20 02:32:32;;;;;;;18.23;10.10;;;;;;;-4.18;53.32;97301.56;5030930;28;20025;-69
2022/03/20 02:35:03;;;;;;;15.18;9.35;;;;;;;-4.30;53.41;97287.78;5031075;28;20030;-70
2022/03/20 02:37:29;;;;;;;14.93;9.85;;;;;;;-4.49;53.52;97252.78;5030606;28;20032;-68
2022/03/20 02:39:57;;;;;;;12.70;8.60;;;;;;;-4.23;53.07;97310.66;5030854;28;20124;-72
2022/03/20 02:42:23;;;;;;;12.75;8.85;;;;;;;-4.40;53.42;97275.72;5030352;28;20040;-70
2022/03/20 02:44:56;;;;;;;14.00;9.52;;;;;;;-4.16;52.76;97295.78;5030644;28;20026;-70
2022/03/20 02:47:33;;;;;;;14.45;9.30;;;;;;;-4.18;52.10;97296.53;5030642;28;20372;-66
2022/03/20 02:50:04;;;;;;;12.32;8.45;;;;;;;-4.37;52.69;97265.72;5030875;28;20025;-67
2022/03/20 02:52:52;;;;;;;9.75;7.43;;;;;;;-4.16;52.60;97290.75;5029203;28;20034;-68
2022/03/20 02:55:26;;;;;;;13.85;8.15;;;;;;;-4.13;51.88;97288.31;5047299;28;20497;-66
2022/03/20 02:57:53;;;;;;;11.50;7.25;;;;;;;-4.06;51.67;97286.84;5047167;28;20051;-68
2022/03/20 03:00:25;;;;;;;15.45;9.70;;;;;;;-4.17;52.62;97273.91;5030702;28;20029;-70
2022/03/20 03:02:54;;;;;;;15.75;9.13;;;;;;;-4.22;51.97;97269.53;5047290;28;20127;-68
2022/03/20 03:05:21;;;;;;;12.27;8.55;;;;;;;-3.79;50.86;97293.50;5047011;28;20037;-66
2022/03/20 03:13:18;;;;;;;24.60;14.15;;;;;;;-4.18;52.23;97231.03;5047383;28;20048;-68
2022/03/20 03:15:44;;;;;;;18.15;11.35;;;;;;;-4.13;52.26;97222.81;5030341;28;20029;-67
2022/03/20 03:18:10;;;;;;;24.58;12.20;;;;;;;-3.78;52.02;97270.03;5046807;28;20094;-65
2022/03/20 03:20:36;;;;;;;22.65;12.50;;;;;;;-3.77;51.84;97294.41;5046818;28;20036;-69
2022/03/20 03:23:03;;;;;;;22.50;12.98;;;;;;;-4.13;51.84;97234.53;5046707;28;20078;-67
2022/03/20 03:25:32;;;;;;;23.35;14.65;;;;;;;-3.94;51.56;97272.06;5047058;28;20168;-68
2022/03/20 03:27:57;;;;;;;25.58;14.20;;;;;;;-3.92;51.73;97292.28;5047082;28;20031;-68
2022/03/20 03:30:23;;;;;;;22.35;13.25;;;;;;;-3.75;51.15;97292.81;5029951;28;20447;-69
2022/03/20 03:32:49;;;;;;;20.73;13.63;;;;;;;-3.88;50.39;97297.47;5027603;28;20522;-69
2022/03/20 03:38:01;;;;;;;17.88;11.18;;;;;;;-4.23;51.14;97301.44;5029576;28;20067;-65
2022/03/20 03:40:27;;;;;;;17.30;11.50;;;;;;;-4.12;50.72;97291.69;5029654;28;20025;-66
2022/03/20 03:42:52;;;;;;;19.75;11.88;;;;;;;-4.23;51.75;97298.06;5029316;28;20040;-68
2022/03/20 03:45:18;;;;;;;17.67;12.07;;;;;;;-4.27;51.47;97307.19;5029752;28;20407;-66
2022/03/20 03:47:44;;;;;;;20.67;12.88;;;;;;;-4.49;51.82;97285.50;5029603;28;20025;-68
2022/03/20 03:50:10;;;;;;;19.13;12.02;;;;;;;-4.52;51.74;97272.81;5029207;28;20162;-66
2022/03/20 03:52:36;;;;;;;19.48;12.65;;;;;;;-4.37;52.22;97311.06;5028742;28;20033;-67
2022/03/20 03:55:06;;;;;;;21.08;12.95;;;;;;;-4.92;53.11;97228.72;5029488;28;20120;-65
2022/03/20 03:57:31;;;;;;;22.10;13.95;;;;;;;-4.95;52.83;97216.03;5027761;28;20087;-68
2022/03/20 03:59:58;;;;;;;20.17;12.93;;;;;;;-4.57;53.36;97271.81;5026074;28;20722;-68
2022/03/20 04:02:23;;;;;;;22.27;13.25;;;;;;;-4.41;53.03;97308.41;5025554;28;20519;-67
2022/03/20 04:04:49;;;;;;;22.98;13.48;;;;;;;-4.51;53.65;97310.66;5028721;28;20021;-68
2022/03/20 04:07:18;;;;;;;22.30;13.85;;;;;;;-4.63;53.53;97290.94;5028967;28;20672;-67
2022/03/20 04:09:45;;;;;;;20.52;12.80;;;;;;;-4.61;53.67;97308.59;5028891;28;20021;-67
2022/03/20 04:12:14;;;;;;;23.70;12.90;;;;;;;-4.62;54.29;97300.22;5028927;28;20021;-68
2022/03/20 04:14:41;;;;;;;24.58;12.93;;;;;;;-4.75;53.06;97275.44;5027004;28;20029;-67
2022/03/20 04:17:07;;;;;;;22.73;12.95;;;;;;;-4.93;54.07;97263.09;5028465;28;20018;-68
2022/03/20 04:19:32;;;;;;;20.10;12.25;;;;;;;-4.54;53.53;97297.94;5028824;28;20033;-68
2022/03/20 04:21:59;;;;;;;21.52;13.52;;;;;;;-4.65;53.64;97294.22;5028504;28;20051;-68
2022/03/20 04:24:25;;;;;;;21.80;13.35;;;;;;;-4.66;54.82;97300.06;5028369;28;20034;-68
2022/03/20 04:26:50;;;;;;;18.38;13.15;;;;;;;-4.87;54.16;97253.25;5028522;28;20026;-68
2022/03/20 04:29:16;;;;;;;18.73;13.85;;;;;;;-4.71;54.77;97294.00;5026309;28;20481;-70
2022/03/20 04:31:42;;;;;;;19.55;12.75;;;;;;;-4.82;54.55;97261.81;5027945;28;20029;-66
2022/03/20 04:34:07;;;;;;;18.17;13.35;;;;;;;-4.74;54.83;97278.81;5028603;28;20127;-68
2022/03/20 04:36:34;;;;;;;23.70;14.48;;;;;;;-4.57;54.88;97314.63;5027825;28;20021;-67
2022/03/20 04:39:00;;;;;;;24.13;15.13;;;;;;;-4.44;54.30;97309.19;5028294;28;20119;-68
2022/03/20 04:41:27;;;;;;;21.08;14.15;;;;;;;-4.42;54.86;97310.06;5028017;28;20067;-66
2022/03/20 04:43:53;;;;;;;22.52;14.30;;;;;;;-4.57;54.51;97302.88;5014112;28;20030;-67
2022/03/20 04:46:19;;;;;;;22.40;14.75;;;;;;;-4.52;55.10;97305.56;5008926;28;20098;-66
2022/03/20 04:59:43;;;;;;;20.63;12.18;;;;;;;-4.29;53.79;97319.72;5008606;28;20707;-68
2022/03/20 05:02:08;;;;;;;22.55;14.13;;;;;;;-4.36;53.32;97297.69;5008648;28;20026;-67
2022/03/20 05:04:34;;;;;;;20.90;13.90;;;;;;;-4.20;53.69;97321.69;5008398;28;20029;-68
2022/03/20 05:06:59;;;;;;;19.27;12.85;;;;;;;-4.18;53.54;97321.72;5008602;28;20032;-68
2022/03/20 05:14:58;;;;;;;19.75;13.52;;;;;;;-4.34;53.43;97275.91;5008820;28;20033;-66
2022/03/20 05:17:24;;;;;;;26.52;15.57;;;;;;;-4.29;52.55;97276.91;5007892;28;20022;-67
2022/03/20 05:19:49;;;;;;;22.25;14.10;;;;;;;-3.90;52.56;97315.91;5008591;28;20044;-67
2022/03/20 05:22:15;;;;;;;22.35;14.25;;;;;;;-3.84;52.22;97317.75;5008200;28;20053;-68
2022/03/20 05:24:40;;;;;;;21.95;14.25;;;;;;;-3.81;52.57;97315.31;5008448;28;20101;-68
2022/03/20 05:27:06;;;;;;;21.10;13.52;;;;;;;-3.72;52.54;97330.72;5008496;28;20026;-70
2022/03/20 05:29:33;;;;;;;20.83;14.30;;;;;;;-3.62;51.59;97334.34;5008227;28;20076;-66
2022/03/20 05:32:02;;;;;;;25.48;14.90;;;;;;;-3.51;51.61;97338.03;5008552;28;20113;-66
2022/03/20 05:34:28;;;;;;;26.02;14.85;;;;;;;-3.47;51.66;97337.34;5008628;28;20026;-67
2022/03/20 05:36:56;;;;;;;26.95;14.07;;;;;;;-3.53;51.62;97324.53;5008325;28;20034;-67
2022/03/20 05:39:22;;;;;;;23.00;13.88;;;;;;;-3.39;51.16;97324.94;5008399;28;20390;-67
2022/03/20 05:41:48;;;;;;;21.20;14.57;;;;;;;-3.71;50.24;97247.53;5007624;28;20064;-68
2022/03/20 05:44:15;;;;;;;23.33;14.68;;;;;;;-3.43;50.01;97260.06;5011623;28;20057;-67
2022/03/20 05:46:51;;;;;;;28.20;14.70;;;;;;;-2.94;50.56;97344.69;5012431;28;20109;-65
2022/03/20 05:49:21;;;;;;;23.27;15.02;;;;;;;-2.69;49.92;97347.88;5011946;28;20083;-68
2022/03/20 05:51:48;;;;;;;23.40;14.75;;;;;;;-2.85;49.28;97309.59;5012038;28;20420;-67
2022/03/20 05:54:15;;;;;;;21.63;15.35;;;;;;;-2.58;49.73;97346.47;5011672;28;20049;-66
2022/03/20 05:59:26;;;;;;;28.15;16.65;;;;;;;-2.79;48.95;97281.09;5012543;28;20092;-67
2022/03/20 06:01:51;;;;;;;20.88;15.18;;;;;;;-2.32;48.15;97333.66;5011871;28;20018;-68
2022/03/20 06:04:17;;;;;;;22.98;15.68;;;;;;;-2.10;47.86;97346.00;5011831;28;20485;-67
2022/03/20 06:06:43;;;;;;;26.17;17.13;;;;;;;-2.06;47.58;97317.44;5011392;28;20049;-67
2022/03/20 06:09:09;;;;;;;25.08;15.77;;;;;;;-1.66;46.21;97342.78;5011689;28;20022;-67
2022/03/20 06:11:35;;;;;;;24.67;14.27;;;;;;;-1.45;45.78;97341.53;5011899;28;20030;-65
2022/03/20 06:14:03;;;;;;;22.48;14.95;;;;;;;-1.36;44.62;97345.13;5011854;28;20022;-67
2022/03/20 06:16:34;;;;;;;19.05;13.77;;;;;;;-1.69;44.87;97289.56;5011938;28;20022;-67
2022/03/20 06:18:59;;;;;;;19.58;13.88;;;;;;;-1.16;44.14;97348.06;5012119;28;20037;-66
2022/03/20 06:21:28;;;;;;;18.85;11.90;;;;;;;-1.08;43.21;97350.75;5011171;28;20042;-69
2022/03/20 06:23:55;;;;;;;16.45;10.85;;;;;;;-0.90;42.44;97342.66;5011513;28;20034;-67
2022/03/20 06:26:21;;;;;;;16.35;12.82;;;;;;;-0.75;41.82;97342.09;5011627;28;20081;-68
2022/03/20 06:28:48;;;;;;;17.17;10.10;;;;;;;-0.65;40.78;97327.91;5011555;28;20030;-67
2022/03/20 06:31:19;;;;;;;15.52;10.27;;;;;;;-0.76;41.14;97322.66;5011768;28;20544;-68
2022/03/20 06:33:46;;;;;;;12.63;10.00;;;;;;;-0.71;40.92;97346.38;5011708;28;20068;-66
2022/03/20 06:36:13;;;;;;;18.80;10.50;;;;;;;-0.65;41.16;97353.25;5011522;28;20049;-67
2022/03/20 06:38:39;;;;;;;17.35;10.15;;;;;;;-1.00;40.70;97282.50;5011631;28;20030;-69
2022/03/20 06:41:06;;;;;;;12.85;9.43;;;;;;;-0.45;40.49;97348.53;5011133;28;20444;-66
2022/03/20 06:43:35;;;;;;;16.67;10.27;;;;;;;-0.25;40.52;97354.78;5011506;28;20036;-68
2022/03/20 06:46:02;;;;;;;14.32;10.25;;;;;;;-0.20;39.91;97339.66;5018403;28;20080;-68
2022/03/20 06:48:28;;;;;;;16.25;10.52;;;;;;;0.07;38.96;97351.09;5019619;28;20049;-66
2022/03/20 06:50:53;;;;;;;17.17;11.77;;;;;;;0.06;39.34;97344.31;5021403;28;20095;-67
2022/03/20 06:53:19;;;;;;;19.50;11.45;;;;;;;0.11;39.40;97347.75;5026644;28;20503;-69
2022/03/20 06:55:45;;;;;;;16.27;9.68;;;;;;;0.07;38.86;97311.34;5030829;28;20052;-68
2022/03/20 06:58:13;;;;;;;15.80;10.18;;;;;;;0.36;38.48;97346.44;5031010;28;20481;-66
2022/03/20 07:00:40;;;;;;;14.73;9.43;;;;;;;0.40;37.98;97348.22;5030823;28;20037;-64
2022/03/20 07:03:06;;;;;;;19.90;11.73;;;;;;;0.34;37.54;97340.50;5030634;28;20053;-69
2022/03/20 07:05:33;;;;;;;17.15;9.18;;;;;;;0.42;37.32;97354.16;5030134;28;20091;-69
2022/03/20 07:08:03;;;;;;;16.60;9.70;;;;;;;0.25;38.40;97322.63;5030384;28;20022;-69
2022/03/20 07:10:28;;;;;;;14.77;9.80;;;;;;;0.32;37.45;97304.09;5030686;28;20108;-67
2022/03/20 07:15:40;;;;;;;14.65;11.05;;;;;;;0.61;36.74;97332.41;5030748;28;20040;-68
2022/03/20 07:18:06;;;;;;;14.82;9.35;;;;;;;0.55;37.20;97317.94;5030010;28;20079;-67
2022/03/20 07:20:36;;;;;;;15.20;10.95;;;;;;;0.69;36.97;97330.00;5030488;28;20503;-68
2022/03/20 07:23:02;;;;;;;13.07;8.65;;;;;;;1.00;35.96;97343.91;5030260;28;20049;-69
2022/03/20 07:30:56;;;;;;;12.93;8.77;;;;;;;1.22;35.85;97341.63;5022519;28;20115;-68
2022/03/20 07:33:25;;;;;;;11.60;8.52;;;;;;;1.22;36.30;97345.00;5013067;28;20109;-68
2022/03/20 07:35:51;;;;;;;11.18;8.43;;;;;;;0.35;36.03;97205.16;5016948;28;20127;-70
2022/03/20 07:38:17;;;;;;;18.00;9.30;;;;;;;1.05;35.18;97305.84;5020834;28;20032;-70
2022/03/20 07:40:42;;;;;;;14.10;9.75;;;;;;;1.31;35.54;97335.78;5020392;28;20013;-71
2022/03/20 07:43:08;;;;;;;15.75;10.10;;;;;;;0.84;35.67;97245.50;5017766;28;20481;-72
2022/03/20 07:45:34;;;;;;;31.73;11.90;;;;;;;1.46;35.04;97325.78;5020667;28;20029;-69
2022/03/20 07:48:00;;;;;;;15.95;9.27;;;;;;;1.87;33.67;97330.38;5023618;28;20229;-69
2022/03/20 07:50:25;;;;;;;13.25;8.70;;;;;;;1.82;33.41;97337.09;5023870;28;20178;-70
2022/03/20 07:52:51;;;;;;;14.02;8.20;;;;;;;1.88;33.64;97321.88;5024141;28;20504;-68
2022/03/20 07:55:17;;;;;;;11.60;8.07;;;;;;;1.96;33.20;97329.59;5023696;28;20014;-74
2022/03/20 07:57:43;;;;;;;13.25;8.80;;;;;;;2.03;34.54;97318.59;5024934;28;20504;-72
2022/03/20 08:00:09;;;;;;;11.18;8.68;;;;;;;1.81;33.58;97326.06;5022253;28;20021;-74
2022/03/20 08:02:36;;;;;;;12.68;8.05;;;;;;;1.88;35.49;97321.03;5024645;28;20087;-73
2022/03/20 08:05:02;;;;;;;12.25;8.20;;;;;;;1.73;33.48;97270.91;5024582;28;20056;-75
2022/03/20 08:07:28;;;;;;;14.27;8.93;;;;;;;2.22;33.19;97318.75;5024286;28;20060;-69
2022/03/20 08:09:53;;;;;;;13.15;8.52;;;;;;;1.43;32.47;97181.66;5036564;28;20033;-69
2022/03/20 08:12:19;;;;;;;12.98;9.05;;;;;;;2.31;32.23;97276.41;5043215;28;20021;-72
2022/03/20 08:14:44;;;;;;;13.30;9.20;;;;;;;2.18;32.33;97232.19;5039934;28;20438;-70
2022/03/20 08:17:10;;;;;;;12.90;8.68;;;;;;;2.23;31.95;97232.22;5037740;28;20021;-71
2022/03/20 08:19:36;;;;;;;12.35;8.25;;;;;;;2.65;32.21;97299.47;5040915;28;20017;-70
2022/03/20 08:22:05;;;;;;;11.85;8.05;;;;;;;2.63;31.80;97290.13;5037032;28;20077;-71
2022/03/20 08:24:30;;;;;;;10.95;7.55;;;;;;;2.59;31.79;97289.25;5037025;28;20028;-70
2022/03/20 08:26:57;;;;;;;17.30;8.38;;;;;;;2.86;31.51;97287.69;5038407;28;20014;-70
2022/03/20 08:29:23;;;;;;;12.32;8.32;;;;;;;2.57;31.24;97232.34;5040015;28;20020;-78
2022/03/20 08:31:48;;;;;;;13.65;8.00;;;;;;;3.00;30.96;97282.63;5040419;28;20514;-70
2022/03/20 08:34:17;;;;;;;12.70;8.38;;;;;;;3.00;30.83;97277.53;5040815;28;20025;-73
2022/03/20 08:36:44;;;;;;;10.52;7.40;;;;;;;2.63;30.74;97214.56;5042173;28;20024;-73
2022/03/20 08:39:09;;;;;;;10.63;7.35;;;;;;;2.81;30.41;97246.88;5034824;28;20412;-77
2022/03/20 08:41:35;;;;;;;11.75;7.95;;;;;;;3.04;30.57;97264.78;5038350;28;20029;-71
2022/03/20 08:44:08;;;;;;;12.07;7.85;;;;;;;2.83;31.03;97232.44;5035937;28;20029;-71
2022/03/20 08:46:37;;;;;;;8.73;6.22;;;;;;;2.85;30.18;97227.34;5038278;28;20451;-75
2022/03/20 08:49:07;;;;;;;13.45;7.93;;;;;;;3.18;30.13;97247.00;5033571;28;20029;-73
2022/03/20 08:51:34;;;;;;;12.32;7.22;;;;;;;3.25;30.21;97253.78;5033788;28;20098;-70
2022/03/20 08:54:01;;;;;;;10.57;7.20;;;;;;;3.00;29.67;97214.66;5024204;28;20041;-71
2022/03/20 08:56:28;;;;;;;10.85;6.93;;;;;;;3.09;29.65;97232.50;5025157;28;20025;-72
2022/03/20 08:58:54;;;;;;;13.57;7.50;;;;;;;3.30;29.40;97247.00;5023288;28;20025;-71
2022/03/20 09:01:20;;;;;;;9.82;6.90;;;;;;;3.25;30.01;97223.19;5024355;28;20021;-71
2022/03/20 09:03:49;;;;;;;12.13;7.65;;;;;;;3.82;29.14;97248.72;5022874;28;20403;-70
2022/03/20 09:06:15;;;;;;;10.30;7.10;;;;;;;6.89;25.52;97236.47;5022576;28;20044;-69
2022/03/20 09:08:43;;;;;;;12.85;8.90;;;;;;;9.23;21.65;97068.50;5024282;28;20046;-68
2022/03/20 09:11:08;;;;;;;12.80;8.75;;;;;;;12.07;19.25;97193.53;5023323;28;20033;-72
2022/03/20 09:13:33;;;;;;;10.27;6.97;;;;;;;12.77;18.25;97184.13;5025073;28;20083;-69
2022/03/20 09:21:33;;;;;;;10.82;7.60;;;;;;;17.94;14.48;97185.88;5022204;28;20531;-68
2022/03/20 09:23:59;;;;;;;13.13;7.68;;;;;;;17.40;14.21;97144.56;5022403;28;20542;-68
2022/03/20 09:26:24;;;;;;;11.93;7.13;;;;;;;19.15;13.00;97172.50;5022685;28;20492;-70
2022/03/20 09:28:50;;;;;;;10.77;7.50;;;;;;;20.07;12.14;97136.88;5023967;28;20119;-71
2022/03/20 09:31:16;;;;;;;9.00;6.72;;;;;;;21.47;11.30;97148.06;5021354;28;20619;-70
2022/03/20 09:33:42;;;;;;;10.77;6.95;;;;;;;22.57;10.61;97155.66;5023966;28;20033;-74
2022/03/20 09:36:08;;;;;;;11.85;7.22;;;;;;;21.46;11.29;97107.00;5022714;28;20064;-77
2022/03/20 09:38:34;;;;;;;8.60;7.38;;;;;;;22.58;10.00;97138.94;5020827;28;20405;-73
2022/03/20 09:41:07;;;;;;;9.38;7.05;;;;;;;23.76;9.44;97138.28;5017894;28;20428;-72
2022/03/20 09:43:33;;;;;;;9.30;7.18;;;;;;;24.15;9.72;97126.28;5022342;28;20037;-71
2022/03/20 09:45:59;;;;;;;8.90;6.30;;;;;;;24.93;8.84;97102.88;5021779;28;20768;-70
2022/03/20 09:48:27;;;;;;;9.63;6.25;;;;;;;25.14;8.43;97110.69;5022033;28;20037;-74
2022/03/20 09:50:53;;;;;;;9.82;6.20;;;;;;;25.82;8.33;97132.84;5023149;28;20421;-71
2022/03/20 09:53:21;;;;;;;9.10;5.85;;;;;;;24.84;7.84;97118.66;5020367;28;20041;-71
2022/03/20 09:55:46;;;;;;;9.98;6.13;;;;;;;23.22;8.86;97138.28;5021835;28;20428;-70
2022/03/20 09:58:13;;;;;;;10.25;6.40;;;;;;;21.91;9.35;97079.25;5020534;28;20029;-74
2022/03/20 10:00:39;;;;;;;8.30;5.80;;;;;;;24.26;8.34;96966.38;5023117;28;20482;-74
2022/03/20 10:03:20;;;;;;;8.13;6.00;;;;;;;25.26;7.75;97126.41;5023832;28;20120;-74
2022/03/20 10:06:17;;;;;;;7.13;5.65;;;;;;;24.62;8.29;97112.63;5022705;28;20041;-72
2022/03/20 10:09:13;;;;;;;8.77;5.60;;;;;;;25.57;7.67;97121.03;5020364;28;20658;-67
2022/03/20 10:11:47;;;;;;;7.05;5.32;;;;;;;24.86;8.27;97087.69;5019781;28;20045;-75
2022/03/20 10:14:20;;;;;;;7.95;5.85;;;;;;;25.57;7.67;97118.41;5019085;28;20451;-70
2022/03/20 10:16:54;;;;;;;7.70;5.80;;;;;;;24.00;8.46;97091.50;5001186;28;20053;-73
2022/03/20 10:19:22;;;;;;;7.38;5.32;;;;;;;26.74;7.54;97107.59;5013265;28;20029;-77
2022/03/20 10:21:52;;;;;;;8.70;5.88;;;;;;;27.53;7.17;97026.63;5020866;28;20113;-75
2022/03/20 10:24:20;;;;;;;8.05;6.45;;;;;;;26.83;7.40;97108.53;5021582;28;20192;-80
2022/03/20 10:27:10;;;;;;;9.15;6.97;;;;;;;28.28;7.07;97103.06;5023410;28;20029;-73
2022/03/20 10:29:46;;;;;;;8.45;6.38;;;;;;;25.61;7.98;97103.94;5025397;28;20052;-74
2022/03/20 10:32:12;;;;;;;8.00;5.63;;;;;;;26.19;8.34;97095.94;5027844;28;20867;-73
2022/03/20 10:34:58;;;;;;;7.93;6.03;;;;;;;23.97;8.90;97033.81;5027080;28;20048;-75
2022/03/20 10:37:48;;;;;;;8.85;6.05;;;;;;;26.03;9.49;97058.69;5027666;28;20063;-72
2022/03/20 10:40:35;;;;;;;7.97;6.97;;;;;;;27.68;7.33;97048.13;5013438;28;20469;-72
2022/03/20 10:43:12;;;;;;;6.57;5.68;;;;;;;27.62;6.90;97038.16;4991410;28;20040;-76
2022/03/20 10:45:50;;;;;;;8.13;6.30;;;;;;;28.38;6.71;97089.69;5007206;28;20060;-72
2022/03/20 10:48:25;;;;;;;12.27;9.50;;;;;;;26.34;7.27;97095.47;5018775;28;20535;-79
2022/03/20 10:51:01;;;;;;;9.35;5.80;;;;;;;24.73;7.74;97027.31;5030241;28;20047;-77
2022/03/20 10:53:26;;;;;;;7.80;5.78;;;;;;;25.69;7.59;97038.00;5027766;28;20053;-74
2022/03/20 10:56:05;;;;;;;8.23;6.25;;;;;;;25.84;7.31;97002.25;5029893;28;20287;-74
2022/03/20 10:58:31;;;;;;;12.40;8.05;;;;;;;24.89;8.02;97039.94;5029364;28;20029;-77
2022/03/20 11:00:56;;;;;;;11.45;8.15;;;;;;;24.91;8.38;97080.25;5029939;28;20036;-75
2022/03/20 11:03:23;;;;;;;7.10;5.57;;;;;;;25.58;7.67;97089.22;5030378;28;20464;-72
2022/03/20 11:05:54;;;;;;;10.48;7.22;;;;;;;26.58;7.05;97045.53;5030058;28;20032;-75
2022/03/20 11:08:19;;;;;;;;;;;;;;;27.28;6.84;97068.78;5029274;28;20025;-76
2022/03/20 11:10:48;;;;;;;8.23;6.30;;;;;;;27.43;6.61;97068.28;5030374;28;20014;-76
2022/03/20 11:13:15;;;;;;;8.27;6.07;;;;;;;25.72;7.66;97065.97;5030011;28;20049;-78
2022/03/20 11:15:45;;;;;;;7.03;5.45;;;;;;;23.25;8.60;96998.53;5029585;28;20091;-74
2022/03/20 11:18:14;;;;;;;9.70;5.85;;;;;;;23.62;8.25;96991.97;5029643;28;20029;-74
2022/03/20 11:20:44;;;;;;;10.68;6.68;;;;;;;25.85;7.97;97069.16;5030068;28;20064;-76
2022/03/20 11:23:12;;;;;;;9.52;5.78;;;;;;;25.10;7.67;96976.47;5030151;28;20052;-73
2022/03/20 11:25:40;;;;;;;7.25;6.20;;;;;;;25.10;7.93;97064.44;5029831;28;20049;-76
2022/03/20 11:28:07;;;;;;;8.68;6.55;;;;;;;26.97;7.50;97004.78;5028795;28;20025;-76
2022/03/20 11:30:35;;;;;;;9.70;7.38;;;;;;;27.90;7.09;97038.81;5029161;28;20025;-75
2022/03/20 11:33:02;;;;;;;7.60;5.75;;;;;;;27.91;6.93;97048.44;5029828;28;20025;-77
2022/03/20 11:35:33;;;;;;;9.50;5.70;;;;;;;26.81;7.41;97050.47;5029582;28;20048;-72
2022/03/20 11:38:35;;;;;;;7.40;5.53;;;;;;;26.52;7.02;97006.44;5029537;28;20409;-77
2022/03/20 11:41:05;;;;;;;10.02;5.85;;;;;;;26.50;9.66;97049.88;5041755;28;20041;-68
2022/03/20 11:43:31;;;;;;;8.30;5.75;;;;;;;27.03;9.32;97032.47;5046534;28;20719;-69
2022/03/20 11:46:12;;;;;;;9.05;6.03;;;;;;;27.93;8.23;97043.00;5029847;28;20033;-68
2022/03/20 11:48:37;;;;;;;;;;;;;;;27.89;9.06;97039.81;5026606;28;20021;-68
2022/03/20 11:51:03;;;;;;;8.77;6.93;;;;;;;26.84;7.74;97036.91;5036350;28;19921;-68
2022/03/20 11:53:29;;;;;;;8.57;5.68;;;;;;;24.83;8.99;97029.97;5034190;28;20104;-68
2022/03/20 11:55:54;;;;;;;9.75;6.25;;;;;;;23.83;8.30;96982.28;5037083;28;20036;-72
2022/03/20 11:58:24;;;;;;;9.77;5.90;;;;;;;24.80;8.39;97040.78;5025207;28;20430;-69
2022/03/20 12:01:06;;;;;;;7.55;5.78;;;;;;;24.61;8.11;97025.72;5034615;28;20044;-73
2022/03/20 12:03:43;;;;;;;6.40;5.10;;;;;;;25.39;7.64;97013.47;5041993;28;20704;-73
2022/03/20 12:06:31;;;;;;;8.55;5.75;;;;;;;26.27;7.34;97013.25;5039984;28;20090;-71
2022/03/20 12:09:27;;;;;;;8.32;5.88;;;;;;;27.00;6.90;97015.06;5025996;28;20554;-73
2022/03/20 12:12:03;;;;;;;9.90;6.40;;;;;;;27.83;6.90;97019.25;5044755;28;20037;-73